Time;durP1;ratioP1;P1;durP2;ratioP2;P2;SDS_P1;SDS_P2;PMS_P1;PMS_P2;Temp;Humidity;BMP_temperature;BMP_pressure;BME280_temperature;BME280_humidity;BME280_pressure;Samples;Min_cycle;Max_cycle;Signal;HPM_P1;HPM_P2
2021/01/26 00:02:15;;;;;;;0.43;0.43;;;;;;;-2.42;100.00;99769.50;4971952;28;20049;-78
2021/01/26 00:05:18;;;;;;;0.50;0.50;;;;;;;-2.43;100.00;99763.28;4973081;28;20797;-78
2021/01/26 00:08:22;;;;;;;0.50;0.50;;;;;;;-2.45;100.00;99762.88;4976032;28;20053;-78
2021/01/26 00:11:26;;;;;;;0.40;0.40;;;;;;;-2.45;100.00;99762.13;4973825;28;20052;-80
2021/01/26 00:14:29;;;;;;;0.40;0.40;;;;;;;-2.50;100.00;99765.22;4974723;28;20076;-80
2021/01/26 00:17:33;;;;;;;0.40;0.40;;;;;;;-2.51;100.00;99777.28;4974365;28;20049;-79
2021/01/26 00:20:36;;;;;;;0.40;0.40;;;;;;;-2.51;100.00;99780.00;4984101;28;20865;-81
2021/01/26 00:23:40;;;;;;;0.47;0.47;;;;;;;-2.52;100.00;99773.03;4973884;28;20687;-80
2021/01/26 00:26:43;;;;;;;0.55;0.55;;;;;;;-2.52;100.00;99773.81;4984165;28;20818;-79
2021/01/26 00:29:47;;;;;;;0.30;0.30;;;;;;;-2.51;100.00;99775.34;4972147;28;20056;-79
2021/01/26 00:32:51;;;;;;;0.30;0.30;;;;;;;-2.53;100.00;99780.41;4973886;28;20504;-80
2021/01/26 00:35:54;;;;;;;0.38;0.38;;;;;;;-2.55;100.00;99779.22;4980946;28;20735;-79
2021/01/26 00:38:58;;;;;;;0.40;0.40;;;;;;;-2.59;100.00;99789.38;4992658;28;20794;-79
2021/01/26 00:42:02;;;;;;;0.50;0.50;;;;;;;-2.63;100.00;99783.91;4993544;28;20076;-80
2021/01/26 00:45:07;;;;;;;0.50;0.50;;;;;;;-2.67;100.00;99785.88;4992985;28;20128;-80
2021/01/26 00:48:11;;;;;;;0.30;0.30;;;;;;;-2.71;100.00;99782.38;4992343;28;20048;-79
2021/01/26 00:51:15;;;;;;;0.32;0.32;;;;;;;-2.76;100.00;99784.69;4992691;28;20056;-80
2021/01/26 00:54:19;;;;;;;0.43;0.43;;;;;;;-2.81;100.00;99777.66;4993781;28;20052;-80
2021/01/26 00:57:22;;;;;;;0.50;0.50;;;;;;;-2.83;100.00;99785.44;4995444;28;20044;-79
2021/01/26 01:00:33;;;;;;;0.30;0.30;;;;;;;-2.86;100.00;99785.47;4996414;28;20047;-79
2021/01/26 01:03:37;;;;;;;0.45;0.45;;;;;;;-2.90;100.00;99777.25;4993974;28;20068;-79
2021/01/26 01:06:42;;;;;;;0.40;0.40;;;;;;;-2.94;100.00;99784.66;4993097;28;20057;-80
2021/01/26 01:09:46;;;;;;;0.10;0.10;;;;;;;-2.95;100.00;99785.06;4993175;28;20057;-79
2021/01/26 01:12:50;;;;;;;0.40;0.40;;;;;;;-2.97;100.00;99784.66;4994174;28;20048;-80
2021/01/26 01:15:53;;;;;;;0.50;0.50;;;;;;;-3.00;100.00;99778.03;4992054;28;20049;-79
2021/01/26 01:18:57;;;;;;;0.40;0.40;;;;;;;-3.02;100.00;99776.84;4991855;28;20076;-79
2021/01/26 01:22:01;;;;;;;0.40;0.40;;;;;;;-3.05;100.00;99783.84;4992610;28;20065;-79
2021/01/26 01:25:06;;;;;;;0.50;0.50;;;;;;;-3.08;100.00;99779.19;4992245;28;20811;-80
2021/01/26 01:28:09;;;;;;;0.40;0.40;;;;;;;-3.09;100.00;99783.84;4994119;28;20049;-79
2021/01/26 01:31:13;;;;;;;0.40;0.40;;;;;;;-3.12;100.00;99792.78;4992040;28;20099;-79
2021/01/26 01:34:14;;;;;;;0.60;0.60;;;;;;;-3.11;100.00;99797.06;5031849;22;20053;-79
2021/01/26 01:37:18;;;;;;;0.40;0.40;;;;;;;-3.13;100.00;99804.84;5031344;28;20049;-79
2021/01/26 01:40:32;;;;;;;0.57;0.57;;;;;;;-3.17;100.00;99808.72;5031877;28;20040;-78
2021/01/26 01:43:35;;;;;;;0.50;0.50;;;;;;;-3.22;100.00;99823.50;5031450;28;20057;-79
2021/01/26 01:46:51;;;;;;;0.40;0.40;;;;;;;-3.25;100.00;99834.38;5031163;28;20048;-79
2021/01/26 01:49:56;;;;;;;0.60;0.60;;;;;;;-3.29;100.00;99837.06;5031265;28;20056;-79
2021/01/26 01:53:08;;;;;;;0.60;0.60;;;;;;;-3.30;100.00;99835.53;5031191;28;20401;-79
2021/01/26 01:56:16;;;;;;;;;;;;;;;-3.32;100.00;99829.69;5031909;28;20052;-78
2021/01/26 01:59:26;;;;;;;0.40;0.40;;;;;;;-3.30;100.00;99843.69;5031233;28;19916;-78
2021/01/26 02:02:30;;;;;;;0.40;0.40;;;;;;;-3.28;100.00;99835.91;5031217;28;20056;-79
2021/01/26 02:05:34;;;;;;;0.50;0.50;;;;;;;-3.30;100.00;99827.34;5031386;28;20056;-78
2021/01/26 02:08:40;;;;;;;0.40;0.40;;;;;;;-3.31;100.00;99831.22;5031072;28;20385;-78
2021/01/26 02:11:46;;;;;;;0.40;0.40;;;;;;;-3.29;100.00;99818.00;5033704;28;20415;-79
2021/01/26 02:14:53;;;;;;;0.63;0.63;;;;;;;-3.29;100.00;99812.56;5035065;28;20081;-80
2021/01/26 02:18:30;;;;;;;0.50;0.50;;;;;;;-3.28;100.00;99811.41;5034723;28;20052;-79
2021/01/26 02:22:11;;;;;;;0.35;0.35;;;;;;;-3.27;100.00;99821.13;5034714;28;20048;-78
2021/01/26 02:25:48;;;;;;;0.40;0.40;;;;;;;-3.27;100.00;99815.69;5034445;28;20053;-78
2021/01/26 02:29:05;;;;;;;0.40;0.40;;;;;;;-3.24;100.00;99809.47;5016776;28;20060;-78
2021/01/26 02:32:20;;;;;;;0.20;0.20;;;;;;;-3.22;100.00;99817.25;5033556;28;20049;-78
2021/01/26 02:35:33;;;;;;;0.52;0.52;;;;;;;-3.23;100.00;99810.28;5034130;28;20073;-78
2021/01/26 02:38:45;;;;;;;0.30;0.30;;;;;;;-3.20;100.00;99823.88;5034287;28;20404;-78
2021/01/26 02:41:59;;;;;;;0.60;0.60;;;;;;;-3.17;100.00;99830.50;5034250;28;20056;-79
2021/01/26 02:45:31;;;;;;;0.50;0.50;;;;;;;-3.13;100.00;99842.97;5034158;28;20056;-78
2021/01/26 02:48:56;;;;;;;0.40;0.40;;;;;;;-3.09;100.00;99854.66;5034193;28;20519;-78
2021/01/26 02:52:36;;;;;;;0.50;0.50;;;;;;;-3.03;100.00;99852.34;5033773;28;20505;-78
2021/01/26 02:55:48;;;;;;;0.50;0.50;;;;;;;-2.98;100.00;99838.34;5033429;28;20053;-78
2021/01/26 02:59:10;;;;;;;0.40;0.40;;;;;;;-2.93;100.00;99835.25;5033794;28;20056;-78
2021/01/26 03:02:32;;;;;;;0.57;0.57;;;;;;;-2.92;100.00;99839.53;5044344;28;20508;-79
2021/01/26 03:05:47;;;;;;;0.10;0.10;;;;;;;-2.89;100.00;99846.16;5033657;28;20072;-78
2021/01/26 03:09:09;;;;;;;0.40;0.40;;;;;;;-2.89;100.00;99829.81;5033645;28;20134;-78
2021/01/26 03:12:23;;;;;;;0.22;0.22;;;;;;;-2.88;100.00;99825.94;5033613;28;20044;-78
2021/01/26 03:15:34;;;;;;;0.50;0.50;;;;;;;-2.88;100.00;99826.69;5033617;28;20068;-78
2021/01/26 03:18:47;;;;;;;0.40;0.40;;;;;;;-2.84;100.00;99821.25;5032984;28;20052;-78
2021/01/26 03:21:57;;;;;;;0.40;0.40;;;;;;;-2.83;100.00;99823.59;5032739;28;20516;-78
2021/01/26 03:25:03;;;;;;;0.47;0.47;;;;;;;-2.78;100.00;99836.06;5032691;28;20052;-78
2021/01/26 03:28:10;;;;;;;0.30;0.30;;;;;;;-2.78;100.00;99819.72;5033127;28;20053;-78
2021/01/26 03:31:16;;;;;;;0.52;0.52;;;;;;;-2.74;100.00;99815.81;5033309;28;20084;-78
2021/01/26 03:34:21;;;;;;;0.40;0.40;;;;;;;-2.73;100.00;99831.00;5031793;28;20068;-78
2021/01/26 03:37:25;;;;;;;0.40;0.40;;;;;;;-2.70;100.00;99832.19;5033346;28;20412;-78
2021/01/26 03:40:29;;;;;;;0.50;0.50;;;;;;;-2.70;100.00;99838.41;5044095;28;20104;-78
2021/01/26 03:43:32;;;;;;;0.40;0.40;;;;;;;-2.67;100.00;99834.94;5033046;28;20547;-78
2021/01/26 03:46:47;;;;;;;0.30;0.30;;;;;;;-2.65;100.00;99837.25;5033163;28;20550;-78
2021/01/26 03:50:17;;;;;;;0.30;0.30;;;;;;;-2.65;100.00;99831.81;5033412;28;20064;-78
2021/01/26 03:53:36;;;;;;;0.40;0.40;;;;;;;-2.65;100.00;99829.06;5033048;28;20064;-78
2021/01/26 03:56:54;;;;;;;0.30;0.30;;;;;;;-2.62;100.00;99836.50;5032987;28;20583;-78
2021/01/26 04:00:15;;;;;;;0.47;0.47;;;;;;;-2.61;100.00;99836.09;5033099;28;20508;-78
2021/01/26 04:03:40;;;;;;;0.52;0.52;;;;;;;-2.59;100.00;99832.97;5033114;28;20056;-78
2021/01/26 04:06:54;;;;;;;0.32;0.32;;;;;;;-2.58;100.00;99824.44;5033376;28;20070;-78
2021/01/26 04:10:02;;;;;;;0.50;0.50;;;;;;;-2.56;100.00;99827.53;5032444;28;20056;-78
2021/01/26 04:13:12;;;;;;;0.40;0.40;;;;;;;-2.53;100.00;99820.50;5042408;28;20053;-78
2021/01/26 04:16:17;;;;;;;0.40;0.40;;;;;;;-2.51;100.00;99820.91;5031548;28;20052;-78
2021/01/26 04:19:25;;;;;;;0.40;0.40;;;;;;;-2.47;100.00;99824.44;5031928;28;20057;-78
2021/01/26 04:22:29;;;;;;;0.47;0.47;;;;;;;-2.46;100.00;99820.53;5032120;28;20052;-77
2021/01/26 04:25:38;;;;;;;0.30;0.30;;;;;;;-2.47;100.00;99827.16;5032360;28;20053;-77
2021/01/26 04:28:45;;;;;;;0.45;0.45;;;;;;;-2.45;100.00;99827.56;5032166;28;20052;-77
2021/01/26 04:31:52;;;;;;;0.30;0.30;;;;;;;-2.44;100.00;99818.19;5031929;28;20069;-77
2021/01/26 04:34:55;;;;;;;0.30;0.30;;;;;;;-2.40;100.00;99824.41;5031508;28;20048;-77
2021/01/26 04:37:59;;;;;;;0.35;0.35;;;;;;;-2.38;100.00;99828.31;5032025;28;20056;-77
2021/01/26 04:41:11;;;;;;;0.50;0.50;;;;;;;-2.35;100.00;99832.22;5032058;28;20052;-77
2021/01/26 04:44:40;;;;;;;0.43;0.43;;;;;;;-2.34;100.00;99831.06;5032277;28;20064;-77
2021/01/26 04:47:51;;;;;;;0.50;0.50;;;;;;;-2.33;100.00;99830.66;5031891;28;20056;-76
2021/01/26 04:50:58;;;;;;;0.50;0.50;;;;;;;-2.34;100.00;99834.53;5032473;28;20711;-75
2021/01/26 04:54:14;;;;;;;0.38;0.38;;;;;;;-2.33;100.00;99829.88;5032203;28;20504;-76
2021/01/26 04:57:35;;;;;;;0.22;0.22;;;;;;;-2.33;100.00;99829.88;5031709;28;20056;-78
2021/01/26 05:01:01;;;;;;;0.30;0.30;;;;;;;-2.30;100.00;99840.03;5031893;28;20060;-77
2021/01/26 05:04:13;;;;;;;0.35;0.35;;;;;;;-2.29;100.00;99830.66;5031661;28;20481;-77
2021/01/26 05:07:25;;;;;;;0.20;0.20;;;;;;;-2.28;100.00;99826.78;5031775;28;20524;-77
2021/01/26 05:10:39;;;;;;;0.30;0.30;;;;;;;-2.24;100.00;99826.75;5031876;28;20072;-77
2021/01/26 05:14:12;;;;;;;0.30;0.30;;;;;;;-2.24;100.00;99826.75;5031784;28;20061;-76
2021/01/26 05:17:30;;;;;;;0.50;0.50;;;;;;;-2.22;100.00;99822.47;5031892;28;20064;-77
2021/01/26 05:20:40;;;;;;;0.30;0.30;;;;;;;-2.23;100.00;99829.09;5031848;28;20057;-77
2021/01/26 05:23:51;;;;;;;0.38;0.38;;;;;;;-2.23;100.00;99818.19;5031362;28;20056;-77
2021/01/26 05:26:55;;;;;;;0.30;0.30;;;;;;;-2.21;100.00;99821.31;5031767;28;20417;-77
2021/01/26 05:30:00;;;;;;;0.30;0.30;;;;;;;-2.20;100.00;99811.94;5031426;28;20052;-79
2021/01/26 05:33:12;;;;;;;0.28;0.28;;;;;;;-2.18;100.00;99825.97;5031471;28;20069;-77
2021/01/26 05:36:16;;;;;;;0.30;0.30;;;;;;;-2.16;100.00;99820.13;5031594;28;20504;-77
2021/01/26 05:39:29;;;;;;;0.28;0.28;;;;;;;-2.14;100.00;99817.81;5032013;28;20052;-77
2021/01/26 05:42:34;;;;;;;0.47;0.47;;;;;;;-2.15;100.00;99814.28;5033997;28;20072;-77
2021/01/26 05:45:44;;;;;;;0.20;0.20;;;;;;;-2.14;100.00;99809.63;5032046;28;20052;-77
2021/01/26 05:48:49;;;;;;;0.50;0.50;;;;;;;-2.11;100.00;99817.00;5034958;28;20052;-77
2021/01/26 05:51:53;;;;;;;0.50;0.50;;;;;;;-2.10;100.00;99822.06;5034958;28;20049;-77
2021/01/26 05:54:59;;;;;;;0.50;0.50;;;;;;;-2.10;100.00;99805.69;5035117;28;20040;-78
2021/01/26 05:58:12;;;;;;;0.35;0.35;;;;;;;-2.09;100.00;99818.19;5034970;28;20512;-77
2021/01/26 06:01:22;;;;;;;0.50;0.50;;;;;;;-2.09;100.00;99806.47;5035049;28;20061;-77
2021/01/26 06:04:34;;;;;;;0.40;0.40;;;;;;;-2.10;100.00;99808.44;5034759;28;20056;-78
2021/01/26 06:07:37;;;;;;;;;;;;;;;-2.08;100.00;99808.81;5035522;28;20508;-78
2021/01/26 06:10:44;;;;;;;0.30;0.30;;;;;;;-2.06;100.00;99800.25;5034965;28;19916;-77
2021/01/26 06:13:48;;;;;;;0.40;0.40;;;;;;;-2.06;100.00;99789.34;5035134;28;20064;-77
2021/01/26 06:17:03;;;;;;;0.40;0.40;;;;;;;-2.05;100.00;99785.44;5034968;28;20056;-78
2021/01/26 06:20:13;;;;;;;0.30;0.30;;;;;;;-2.05;100.00;99796.34;5034800;28;20096;-78
2021/01/26 06:23:26;;;;;;;0.50;0.50;;;;;;;-2.06;100.00;99790.13;5034547;28;20048;-78
2021/01/26 06:26:38;;;;;;;0.38;0.38;;;;;;;-2.05;100.00;99796.34;5034628;28;20060;-78
2021/01/26 06:29:55;;;;;;;0.20;0.20;;;;;;;-2.03;100.00;99805.69;5034652;28;20061;-77
2021/01/26 06:33:19;;;;;;;0.40;0.40;;;;;;;-2.04;100.00;99806.88;5033244;28;20048;-76
2021/01/26 06:36:45;;;;;;;0.45;0.45;;;;;;;-2.02;100.00;99812.72;5033578;28;20057;-76
2021/01/26 06:40:15;;;;;;;0.30;0.30;;;;;;;-2.02;100.00;99806.47;5034170;28;20052;-77
2021/01/26 06:43:54;;;;;;;0.10;0.10;;;;;;;-2.00;100.00;99815.84;5033938;28;20072;-76
2021/01/26 06:47:08;;;;;;;0.30;0.30;;;;;;;-1.98;100.00;99808.03;5034249;28;20056;-78
2021/01/26 06:50:23;;;;;;;0.40;0.40;;;;;;;-1.96;100.00;99815.81;5034256;28;20516;-78
2021/01/26 06:53:33;;;;;;;0.50;0.50;;;;;;;-1.96;100.00;99816.59;5033893;28;20052;-78
2021/01/26 06:57:08;;;;;;;0.30;0.30;;;;;;;-1.96;100.00;99816.59;5033952;28;20056;-78
2021/01/26 07:00:39;;;;;;;0.47;0.47;;;;;;;-1.94;100.00;99813.47;5033937;28;20058;-76
2021/01/26 07:04:10;;;;;;;0.50;0.50;;;;;;;-1.93;100.00;99815.84;5032436;28;20061;-77
2021/01/26 07:07:35;;;;;;;0.33;0.33;;;;;;;-1.90;100.00;99825.16;5033412;28;20064;-78
2021/01/26 07:11:10;;;;;;;0.47;0.47;;;;;;;-1.90;100.00;99809.56;5033392;28;20076;-77
2021/01/26 07:14:16;;;;;;;0.30;0.30;;;;;;;-1.88;100.00;99799.03;5033142;28;20048;-78
2021/01/26 07:17:42;;;;;;;0.20;0.20;;;;;;;-1.86;100.00;99804.88;5035272;28;20053;-79
2021/01/26 07:21:15;;;;;;;0.32;0.32;;;;;;;-1.84;100.00;99793.59;5035858;28;20057;-79
2021/01/26 07:24:57;;;;;;;0.50;0.50;;;;;;;-1.81;100.00;99792.78;5036073;28;20060;-79
2021/01/26 07:28:19;;;;;;;0.30;0.30;;;;;;;-1.79;100.00;99793.97;5032753;28;20405;-79
2021/01/26 07:31:33;;;;;;;0.20;0.20;;;;;;;-1.77;100.00;99807.19;5032785;28;20061;-79
2021/01/26 07:34:47;;;;;;;0.40;0.40;;;;;;;-1.76;100.00;99806.03;5032577;28;20053;-79
2021/01/26 07:38:03;;;;;;;0.45;0.45;;;;;;;-1.75;100.00;99819.28;5033330;28;20385;-79
2021/01/26 07:41:16;;;;;;;0.30;0.30;;;;;;;-1.73;100.00;99810.69;5043814;28;20516;-78
2021/01/26 07:44:25;;;;;;;0.22;0.22;;;;;;;-1.70;100.00;99809.91;5043715;28;20061;-79
2021/01/26 07:47:37;;;;;;;0.30;0.30;;;;;;;-1.68;100.00;99797.44;5032949;28;20052;-79
2021/01/26 07:50:48;;;;;;;0.20;0.20;;;;;;;-1.66;100.00;99803.28;5032909;28;20052;-78
2021/01/26 07:54:16;;;;;;;0.30;0.30;;;;;;;-1.62;100.00;99803.25;5032808;28;20053;-78
2021/01/26 07:57:28;;;;;;;0.50;0.50;;;;;;;-1.58;100.00;99809.47;5032622;28;20065;-78
2021/01/26 08:00:38;;;;;;;0.20;0.20;;;;;;;-1.52;100.00;99812.59;5032848;28;20052;-77
2021/01/26 08:03:43;;;;;;;0.30;0.30;;;;;;;-1.47;100.00;99820.41;5032917;28;20096;-78
2021/01/26 08:06:48;;;;;;;0.30;0.30;;;;;;;-1.44;100.00;99830.50;5032918;28;20512;-78
2021/01/26 08:09:53;;;;;;;0.50;0.50;;;;;;;-1.40;100.00;99839.47;5032106;28;20516;-77
2021/01/26 08:12:57;;;;;;;0.28;0.28;;;;;;;-1.37;100.00;99847.66;5032255;28;20056;-78
2021/01/26 08:16:19;;;;;;;0.20;0.20;;;;;;;-1.32;100.00;99838.28;5032644;28;20052;-78
2021/01/26 08:19:31;;;;;;;0.47;0.47;;;;;;;-1.27;100.00;99813.28;5032529;28;20052;-78
2021/01/26 08:22:37;;;;;;;0.30;0.30;;;;;;;-1.21;100.00;99808.97;5032142;28;20052;-78
2021/01/26 08:25:42;;;;;;;0.25;0.25;;;;;;;-1.15;100.00;99821.03;5032336;28;20060;-77
2021/01/26 08:28:47;;;;;;;0.40;0.40;;;;;;;-1.09;100.00;99824.91;5031504;28;20112;-77
2021/01/26 08:31:51;;;;;;;0.30;0.30;;;;;;;-1.06;100.00;99818.66;5031326;28;20072;-78
2021/01/26 08:35:04;;;;;;;0.40;0.40;;;;;;;-1.00;100.00;99806.13;5031176;28;20052;-77
2021/01/26 08:38:09;;;;;;;0.32;0.32;;;;;;;-0.87;100.00;99799.03;5032245;28;20072;-78
2021/01/26 08:41:33;;;;;;;0.35;0.35;;;;;;;-0.80;100.00;99813.41;5032354;28;20052;-78
2021/01/26 08:44:37;;;;;;;0.40;0.40;;;;;;;-0.76;100.00;99810.69;5030928;28;20064;-78
2021/01/26 08:47:44;;;;;;;0.30;0.30;;;;;;;-0.72;100.00;99796.97;5031289;28;20401;-78
2021/01/26 08:50:50;;;;;;;0.30;0.30;;;;;;;-0.67;100.00;99791.09;5030380;28;20504;-78
2021/01/26 08:53:54;;;;;;;0.22;0.22;;;;;;;-0.63;100.00;99787.16;5031133;28;20048;-79
2021/01/26 08:56:57;;;;;;;0.40;0.40;;;;;;;-0.60;100.00;99780.88;5032059;28;20099;-79
2021/01/26 09:00:13;;;;;;;0.40;0.40;;;;;;;-0.53;100.00;99778.09;5032154;28;20060;-78
2021/01/26 09:03:42;;;;;;;0.40;0.40;;;;;;;-0.46;100.00;99779.97;5030458;28;20095;-78
2021/01/26 09:06:48;;;;;;;0.30;0.30;;;;;;;-0.39;100.00;99786.16;5031931;28;20045;-79
2021/01/26 09:09:53;;;;;;;0.20;0.20;;;;;;;-0.38;100.00;99782.25;5031909;28;20512;-78
2021/01/26 09:13:27;;;;;;;0.20;0.20;;;;;;;-0.35;100.00;99770.53;5031628;28;20057;-79
2021/01/26 09:16:32;;;;;;;0.30;0.30;;;;;;;-0.34;100.00;99777.53;5030912;28;20056;-81
2021/01/26 09:19:40;;;;;;;0.30;0.30;;;;;;;-0.30;100.00;99772.78;5032288;28;20061;-80
2021/01/26 09:22:44;;;;;;;0.28;0.28;;;;;;;-0.24;100.00;99776.66;5035652;28;20401;-80
2021/01/26 09:25:47;;;;;;;0.30;0.30;;;;;;;-0.22;100.00;99760.59;5036475;28;20057;-80
2021/01/26 09:28:51;;;;;;;0.40;0.40;;;;;;;-0.22;100.00;99757.88;5035423;28;20516;-77
2021/01/26 09:31:56;;;;;;;0.30;0.30;;;;;;;-0.18;100.00;99764.09;5035361;28;20057;-78
2021/01/26 09:35:12;;;;;;;0.17;0.17;;;;;;;-0.19;100.00;99750.81;5035715;28;20065;-80
2021/01/26 09:38:43;;;;;;;0.20;0.20;;;;;;;-0.15;100.00;99743.34;5035809;28;20121;-80
2021/01/26 09:41:48;;;;;;;0.30;0.30;;;;;;;-0.15;100.00;99730.44;5036272;28;20056;-81
2021/01/26 09:44:56;;;;;;;0.30;0.30;;;;;;;-0.15;100.00;99730.44;5035720;28;20060;-80
2021/01/26 09:47:59;;;;;;;0.35;0.35;;;;;;;-0.14;100.00;99726.53;5046177;28;20109;-79
2021/01/26 09:51:23;;;;;;;0.40;0.40;;;;;;;-0.10;100.00;99735.47;5036261;28;20076;-79
2021/01/26 09:54:33;;;;;;;0.30;0.30;;;;;;;-0.03;100.00;99737.38;5036413;28;20508;-79
2021/01/26 09:57:37;;;;;;;0.30;0.30;;;;;;;0.11;100.00;99720.78;5035337;28;20194;-78
2021/01/26 10:00:41;;;;;;;0.20;0.20;;;;;;;0.16;100.00;99689.44;5035047;28;20056;-78
2021/01/26 10:03:46;;;;;;;0.32;0.32;;;;;;;0.15;100.00;99671.47;5034843;28;20049;-79
2021/01/26 10:06:51;;;;;;;0.20;0.20;;;;;;;0.11;100.00;99673.47;5034616;28;20048;-80
2021/01/26 10:10:17;;;;;;;0.20;0.20;;;;;;;0.11;100.00;99676.22;5034903;28;20054;-80
2021/01/26 10:13:28;;;;;;;0.30;0.30;;;;;;;0.11;100.00;99678.97;5034628;28;20048;-79
2021/01/26 10:16:35;;;;;;;0.30;0.30;;;;;;;0.10;100.00;99663.69;5034468;28;20053;-80
2021/01/26 10:19:39;;;;;;;0.30;0.30;;;;;;;0.14;100.00;99675.38;5033378;28;20048;-81
2021/01/26 10:22:43;;;;;;;0.40;0.40;;;;;;;0.18;100.00;99670.63;5031218;28;20057;-80
2021/01/26 10:25:46;;;;;;;0.20;0.20;;;;;;;0.19;100.00;99674.94;5033780;28;20520;-82
2021/01/26 10:29:10;;;;;;;0.30;0.30;;;;;;;0.19;100.00;99674.94;5033945;28;20413;-83
2021/01/26 10:32:42;;;;;;;0.32;0.32;;;;;;;0.15;100.00;99655.81;5033370;28;20052;-81
2021/01/26 10:35:46;;;;;;;0.10;0.10;;;;;;;0.18;100.00;99648.72;5033421;28;20054;-81
2021/01/26 10:38:50;;;;;;;0.30;0.30;;;;;;;0.23;100.00;99667.44;5033674;28;20048;-81
2021/01/26 10:42:04;;;;;;;0.40;0.40;;;;;;;0.24;100.00;99677.22;5033156;28;21176;-81
2021/01/26 10:45:11;;;;;;;0.20;0.20;;;;;;;0.25;100.00;99665.06;5033538;28;20385;-81
2021/01/26 10:48:28;;;;;;;0.40;0.40;;;;;;;0.24;100.00;99666.28;5033818;28;20064;-81
2021/01/26 10:51:37;;;;;;;0.38;0.38;;;;;;;0.26;100.00;99661.16;5033634;28;20067;-81
2021/01/26 10:54:40;;;;;;;0.25;0.25;;;;;;;0.29;100.00;99654.84;5033509;28;20060;-81
2021/01/26 10:57:44;;;;;;;0.30;0.30;;;;;;;0.30;100.00;99656.41;5033307;28;20072;-81
2021/01/26 11:00:51;;;;;;;0.15;0.15;;;;;;;0.29;100.00;99660.31;5033511;28;20056;-80
2021/01/26 11:03:54;;;;;;;0.20;0.20;;;;;;;0.30;100.00;99670.09;5033151;28;20049;-80
2021/01/26 11:06:58;;;;;;;0.30;0.30;;;;;;;0.28;100.00;99686.19;5033438;28;20057;-81
2021/01/26 11:10:02;;;;;;;0.20;0.20;;;;;;;0.32;100.00;99703.34;5033277;28;20414;-81
2021/01/26 11:13:05;;;;;;;0.30;0.30;;;;;;;0.39;100.00;99708.72;5033329;28;20500;-81
2021/01/26 11:16:09;;;;;;;0.50;0.50;;;;;;;0.44;100.00;99695.34;5033024;28;20060;-81
2021/01/26 11:19:12;;;;;;;0.20;0.20;;;;;;;0.46;100.00;99692.97;5043893;28;20048;-81
2021/01/26 11:22:16;;;;;;;0.30;0.30;;;;;;;0.49;100.00;99696.84;5032802;28;20049;-80
2021/01/26 11:25:22;;;;;;;0.10;0.10;;;;;;;0.52;100.00;99690.56;5043367;28;20052;-81
2021/01/26 11:28:26;;;;;;;0.30;0.30;;;;;;;0.56;100.00;99661.16;5033296;28;20513;-81
2021/01/26 11:31:30;;;;;;;0.10;0.10;;;;;;;0.59;100.00;99672.03;5032830;28;20056;-81
2021/01/26 11:34:35;;;;;;;0.20;0.20;;;;;;;0.59;100.00;99674.00;5032759;28;20060;-81
2021/01/26 11:37:40;;;;;;;0.20;0.20;;;;;;;0.61;100.00;99663.41;5032834;28;20053;-80
2021/01/26 11:40:43;;;;;;;0.35;0.35;;;;;;;0.65;100.00;99666.91;5032882;28;20053;-82
2021/01/26 11:43:47;;;;;;;0.20;0.20;;;;;;;0.66;100.00;99671.16;5031831;28;20053;-80
2021/01/26 11:46:50;;;;;;;0.20;0.20;;;;;;;0.70;100.00;99663.69;5033030;28;20056;-80
2021/01/26 11:49:54;;;;;;;0.20;0.20;;;;;;;0.73;100.00;99662.84;5033025;28;20052;-80
2021/01/26 11:52:57;;;;;;;0.20;0.20;;;;;;;0.77;100.00;99664.34;5032615;28;20528;-79
2021/01/26 11:56:00;;;;;;;0.22;0.22;;;;;;;0.81;100.00;99656.06;5032466;28;20109;-80
2021/01/26 11:59:04;;;;;;;0.20;0.20;;;;;;;0.85;100.00;99640.34;5032425;28;20056;-81
2021/01/26 12:02:07;;;;;;;0.20;0.20;;;;;;;0.95;100.00;99635.91;5032607;28;20048;-82
2021/01/26 12:05:11;;;;;;;0.10;0.10;;;;;;;1.00;100.00;99629.91;5032806;28;20429;-82
2021/01/26 12:08:15;;;;;;;0.20;0.20;;;;;;;1.04;100.00;99627.94;5043735;28;20737;-80
2021/01/26 12:11:19;;;;;;;0.17;0.17;;;;;;;1.06;100.00;99609.84;5032159;28;20052;-83
2021/01/26 12:14:22;;;;;;;0.20;0.20;;;;;;;1.11;100.00;99612.13;5032827;28;20064;-82
2021/01/26 12:17:26;;;;;;;0.17;0.17;;;;;;;1.10;100.00;99605.09;5033002;28;20080;-80
2021/01/26 12:20:40;;;;;;;0.20;0.20;;;;;;;1.10;100.00;99594.13;5032496;28;20048;-80
2021/01/26 12:23:48;;;;;;;0.10;0.10;;;;;;;1.13;100.00;99593.28;5043523;28;20056;-81
2021/01/26 12:26:54;;;;;;;0.20;0.20;;;;;;;1.19;100.00;99590.84;5032038;28;20049;-80
2021/01/26 12:29:57;;;;;;;0.20;0.20;;;;;;;1.23;100.00;99586.84;5042548;28;20068;-82
2021/01/26 12:33:00;;;;;;;0.20;0.20;;;;;;;1.26;100.00;99585.22;5032485;28;20048;-80
2021/01/26 12:36:04;;;;;;;0.10;0.10;;;;;;;1.24;100.00;99593.09;5031582;28;20053;-80
2021/01/26 12:39:08;;;;;;;0.20;0.20;;;;;;;1.19;100.00;99591.59;5032678;28;20068;-82
2021/01/26 12:42:12;;;;;;;0.10;0.10;;;;;;;1.13;100.00;99593.28;5042876;28;20044;-82
2021/01/26 12:45:20;;;;;;;0.20;0.20;;;;;;;1.08;100.00;99591.03;5031295;28;20049;-81
2021/01/26 12:48:23;;;;;;;0.30;0.30;;;;;;;1.04;100.00;99584.81;5042921;28;20052;-82
2021/01/26 12:51:27;;;;;;;0.40;0.40;;;;;;;1.02;100.00;99578.22;5032560;28;20500;-83
2021/01/26 12:54:33;;;;;;;0.40;0.40;;;;;;;0.99;100.00;99577.09;5032021;28;20048;-82
2021/01/26 12:57:38;;;;;;;0.30;0.30;;;;;;;0.98;100.00;99574.75;5031373;28;20056;-83
2021/01/26 13:00:41;;;;;;;0.30;0.30;;;;;;;0.99;100.00;99568.84;5032228;28;20056;-83
2021/01/26 13:03:45;;;;;;;0.20;0.20;;;;;;;0.98;100.00;99559.06;5031521;28;20036;-79
2021/01/26 13:06:48;;;;;;;0.20;0.20;;;;;;;0.98;100.00;99564.56;5032389;28;20393;-81
2021/01/26 13:09:52;;;;;;;0.20;0.20;;;;;;;0.93;100.00;99564.28;5032202;28;20048;-78
2021/01/26 13:12:55;;;;;;;0.10;0.10;;;;;;;0.90;100.00;99563.13;5032052;28;20048;-77
2021/01/26 13:15:59;;;;;;;0.10;0.10;;;;;;;0.87;100.00;99563.19;5032075;28;20064;-77
2021/01/26 13:19:02;;;;;;;0.20;0.20;;;;;;;0.82;100.00;99556.22;5031917;28;20048;-78
2021/01/26 13:22:06;;;;;;;0.30;0.30;;;;;;;0.83;100.00;99541.31;5031638;28;20049;-82
2021/01/26 13:25:11;;;;;;;0.28;0.28;;;;;;;0.79;100.00;99529.66;5032083;28;20493;-79
2021/01/26 13:28:14;;;;;;;0.20;0.20;;;;;;;0.76;100.00;99514.03;5032041;28;20056;-79
2021/01/26 13:31:18;;;;;;;0.20;0.20;;;;;;;0.70;100.00;99504.75;5031881;28;20044;-80
2021/01/26 13:34:21;;;;;;;0.25;0.25;;;;;;;0.66;100.00;99493.84;5042257;28;20523;-79
2021/01/26 13:37:25;;;;;;;0.32;0.32;;;;;;;0.70;100.00;99491.03;5030788;28;20509;-80
2021/01/26 13:40:28;;;;;;;0.22;0.22;;;;;;;0.76;100.00;99489.38;5030165;28;20044;-79
2021/01/26 13:43:32;;;;;;;0.32;0.32;;;;;;;0.80;100.00;99481.88;5032068;28;20061;-81
2021/01/26 13:46:35;;;;;;;0.57;0.57;;;;;;;0.78;100.00;99484.25;5030425;28;20053;-78
2021/01/26 13:49:39;;;;;;;0.10;0.10;;;;;;;0.75;100.00;99485.09;5031521;28;20397;-80
2021/01/26 13:52:42;;;;;;;0.30;0.30;;;;;;;0.73;100.00;99480.03;5011852;28;20501;-81
2021/01/26 13:55:45;;;;;;;0.20;0.20;;;;;;;0.74;100.00;99469.81;5012256;28;20057;-81
2021/01/26 13:58:49;;;;;;;0.30;0.30;;;;;;;0.70;100.00;99469.13;5022709;28;20053;-80
2021/01/26 14:01:52;;;;;;;0.10;0.10;;;;;;;0.69;100.00;99459.38;5012618;28;20041;-81
2021/01/26 14:04:55;;;;;;;0.20;0.20;;;;;;;0.68;100.00;99460.53;5013246;28;20061;-81
2021/01/26 14:08:01;;;;;;;0.20;0.20;;;;;;;0.63;100.00;99450.06;5015174;28;20045;-82
2021/01/26 14:11:04;;;;;;;0.30;0.30;;;;;;;0.56;100.00;99455.69;5015615;28;20509;-80
2021/01/26 14:14:08;;;;;;;0.73;0.73;;;;;;;0.52;100.00;99447.50;5016057;28;20049;-84
2021/01/26 14:17:12;;;;;;;0.13;0.13;;;;;;;0.53;100.00;99434.59;5016086;28;20033;-83
2021/01/26 14:20:17;;;;;;;0.17;0.17;;;;;;;0.55;100.00;99437.69;5026203;28;20048;-78
2021/01/26 14:23:21;;;;;;;0.28;0.28;;;;;;;0.54;100.00;99442.38;5015338;28;20057;-79
2021/01/26 14:26:25;;;;;;;0.20;0.20;;;;;;;0.54;100.00;99447.09;5015620;28;20111;-80
2021/01/26 14:29:28;;;;;;;0.20;0.20;;;;;;;0.53;100.00;99440.06;5015571;28;20045;-80
2021/01/26 14:32:35;;;;;;;0.30;0.30;;;;;;;0.57;100.00;99433.34;5015503;28;20053;-80
2021/01/26 14:35:38;;;;;;;0.30;0.30;;;;;;;0.58;100.00;99425.91;5031154;28;20065;-80
2021/01/26 14:38:42;;;;;;;0.20;0.20;;;;;;;0.61;100.00;99414.09;5023111;28;20044;-80
2021/01/26 14:41:45;;;;;;;0.20;0.20;;;;;;;0.62;100.00;99404.69;5038227;28;20040;-81
2021/01/26 14:44:48;;;;;;;0.20;0.20;;;;;;;0.64;100.00;99392.13;5034318;28;20420;-81
2021/01/26 14:47:52;;;;;;;0.20;0.20;;;;;;;0.67;100.00;99385.03;5032936;28;20398;-82